sensor_id;sensor_type;location;lat;lon;timestamp;P1;durP1;ratioP1;P2;durP2;ratioP2
19687;SDS011;9993;52.008;4.732;2022-08-06T00:02:19;5.78;;;2.97;;
19687;SDS011;9993;52.008;4.732;2022-08-06T00:04:45;2.72;;;2.20;;
19687;SDS011;9993;52.008;4.732;2022-08-06T00:07:11;3.88;;;2.35;;
19687;SDS011;9993;52.008;4.732;2022-08-06T00:09:36;4.22;;;2.58;;
19687;SDS011;9993;52.008;4.732;2022-08-06T00:12:01;12.00;;;3.10;;
19687;SDS011;9993;52.008;4.732;2022-08-06T00:14:28;4.03;;;2.45;;
19687;SDS011;9993;52.008;4.732;2022-08-06T00:16:53;4.30;;;2.60;;
19687;SDS011;9993;52.008;4.732;2022-08-06T00:19:18;4.43;;;2.50;;
19687;SDS011;9993;52.008;4.732;2022-08-06T00:21:43;4.30;;;2.50;;
19687;SDS011;9993;52.008;4.732;2022-08-06T00:24:09;3.80;;;2.85;;
19687;SDS011;9993;52.008;4.732;2022-08-06T00:26:34;3.85;;;2.83;;
19687;SDS011;9993;52.008;4.732;2022-08-06T00:28:59;3.38;;;2.88;;
19687;SDS011;9993;52.008;4.732;2022-08-06T00:31:24;9.45;;;3.40;;
19687;SDS011;9993;52.008;4.732;2022-08-06T00:33:49;4.15;;;2.90;;
19687;SDS011;9993;52.008;4.732;2022-08-06T00:36:15;3.33;;;3.00;;
19687;SDS011;9993;52.008;4.732;2022-08-06T00:38:40;2.97;;;2.72;;
19687;SDS011;9993;52.008;4.732;2022-08-06T00:41:05;4.88;;;3.13;;
19687;SDS011;9993;52.008;4.732;2022-08-06T00:43:30;5.43;;;2.65;;
19687;SDS011;9993;52.008;4.732;2022-08-06T00:45:56;4.65;;;2.67;;
19687;SDS011;9993;52.008;4.732;2022-08-06T00:48:21;5.35;;;2.88;;
19687;SDS011;9993;52.008;4.732;2022-08-06T00:50:46;3.25;;;2.78;;
19687;SDS011;9993;52.008;4.732;2022-08-06T00:53:12;3.78;;;2.90;;
19687;SDS011;9993;52.008;4.732;2022-08-06T00:55:37;4.72;;;2.90;;
19687;SDS011;9993;52.008;4.732;2022-08-06T00:58:03;4.50;;;2.60;;
19687;SDS011;9993;52.008;4.732;2022-08-06T01:00:28;4.95;;;3.05;;
19687;SDS011;9993;52.008;4.732;2022-08-06T01:02:53;5.45;;;2.58;;
19687;SDS011;9993;52.008;4.732;2022-08-06T01:05:18;7.32;;;3.00;;
19687;SDS011;9993;52.008;4.732;2022-08-06T01:07:43;6.05;;;2.50;;
19687;SDS011;9993;52.008;4.732;2022-08-06T01:10:09;7.47;;;3.08;;
19687;SDS011;9993;52.008;4.732;2022-08-06T01:12:34;4.75;;;2.50;;
19687;SDS011;9993;52.008;4.732;2022-08-06T01:14:59;2.78;;;2.53;;
19687;SDS011;9993;52.008;4.732;2022-08-06T01:17:49;5.80;;;2.85;;
19687;SDS011;9993;52.008;4.732;2022-08-06T01:28:10;5.18;;;2.47;;
19687;SDS011;9993;52.008;4.732;2022-08-06T01:30:40;2.67;;;2.45;;
19687;SDS011;9993;52.008;4.732;2022-08-06T01:37:45;7.18;;;2.88;;
19687;SDS011;9993;52.008;4.732;2022-08-06T01:40:18;4.95;;;3.05;;
19687;SDS011;9993;52.008;4.732;2022-08-06T01:42:44;2.80;;;2.60;;
19687;SDS011;9993;52.008;4.732;2022-08-06T01:45:11;4.80;;;3.17;;
19687;SDS011;9993;52.008;4.732;2022-08-06T01:47:38;2.70;;;2.50;;
19687;SDS011;9993;52.008;4.732;2022-08-06T01:50:05;6.00;;;2.97;;
19687;SDS011;9993;52.008;4.732;2022-08-06T01:52:32;4.22;;;2.65;;
19687;SDS011;9993;52.008;4.732;2022-08-06T01:54:58;3.95;;;2.75;;
19687;SDS011;9993;52.008;4.732;2022-08-06T01:57:23;4.30;;;3.45;;
19687;SDS011;9993;52.008;4.732;2022-08-06T01:59:50;4.32;;;2.65;;
19687;SDS011;9993;52.008;4.732;2022-08-06T02:02:18;3.63;;;2.80;;
19687;SDS011;9993;52.008;4.732;2022-08-06T02:04:44;3.60;;;3.13;;
19687;SDS011;9993;52.008;4.732;2022-08-06T02:07:10;4.13;;;2.88;;
19687;SDS011;9993;52.008;4.732;2022-08-06T02:09:37;3.20;;;2.90;;
19687;SDS011;9993;52.008;4.732;2022-08-06T02:12:04;2.63;;;2.28;;
19687;SDS011;9993;52.008;4.732;2022-08-06T02:14:32;5.15;;;2.58;;
19687;SDS011;9993;52.008;4.732;2022-08-06T02:16:58;5.93;;;2.70;;
19687;SDS011;9993;52.008;4.732;2022-08-06T02:19:24;4.63;;;2.60;;
19687;SDS011;9993;52.008;4.732;2022-08-06T02:21:50;3.67;;;2.40;;
19687;SDS011;9993;52.008;4.732;2022-08-06T02:24:16;3.95;;;2.40;;
19687;SDS011;9993;52.008;4.732;2022-08-06T02:26:42;3.60;;;2.78;;
19687;SDS011;9993;52.008;4.732;2022-08-06T02:29:08;2.97;;;2.50;;
19687;SDS011;9993;52.008;4.732;2022-08-06T02:31:34;3.63;;;2.50;;
19687;SDS011;9993;52.008;4.732;2022-08-06T02:34:00;4.40;;;2.60;;
19687;SDS011;9993;52.008;4.732;2022-08-06T02:39:33;4.35;;;2.65;;
19687;SDS011;9993;52.008;4.732;2022-08-06T02:42:07;3.38;;;2.65;;
19687;SDS011;9993;52.008;4.732;2022-08-06T02:44:41;3.72;;;2.65;;
19687;SDS011;9993;52.008;4.732;2022-08-06T02:47:09;3.65;;;2.80;;
19687;SDS011;9993;52.008;4.732;2022-08-06T02:49:36;3.33;;;2.10;;
19687;SDS011;9993;52.008;4.732;2022-08-06T02:55:00;2.47;;;2.28;;
19687;SDS011;9993;52.008;4.732;2022-08-06T02:57:29;2.80;;;2.60;;
19687;SDS011;9993;52.008;4.732;2022-08-06T02:59:57;2.80;;;2.30;;
19687;SDS011;9993;52.008;4.732;2022-08-06T03:02:25;2.50;;;2.30;;
19687;SDS011;9993;52.008;4.732;2022-08-06T03:04:51;3.10;;;2.40;;
19687;SDS011;9993;52.008;4.732;2022-08-06T03:07:18;2.15;;;1.83;;
19687;SDS011;9993;52.008;4.732;2022-08-06T03:09:45;6.25;;;2.25;;
19687;SDS011;9993;52.008;4.732;2022-08-06T03:12:11;3.25;;;2.75;;
19687;SDS011;9993;52.008;4.732;2022-08-06T03:14:38;2.70;;;2.50;;
19687;SDS011;9993;52.008;4.732;2022-08-06T03:17:03;2.70;;;2.50;;
19687;SDS011;9993;52.008;4.732;2022-08-06T03:19:29;2.67;;;2.45;;
19687;SDS011;9993;52.008;4.732;2022-08-06T03:21:55;2.70;;;2.50;;
19687;SDS011;9993;52.008;4.732;2022-08-06T03:24:21;3.10;;;2.58;;
19687;SDS011;9993;52.008;4.732;2022-08-06T03:26:48;4.43;;;2.47;;
19687;SDS011;9993;52.008;4.732;2022-08-06T03:29:14;3.20;;;2.90;;
19687;SDS011;9993;52.008;4.732;2022-08-06T03:31:40;3.10;;;2.78;;
19687;SDS011;9993;52.008;4.732;2022-08-06T03:34:05;5.13;;;2.67;;
19687;SDS011;9993;52.008;4.732;2022-08-06T03:36:31;4.63;;;2.90;;
19687;SDS011;9993;52.008;4.732;2022-08-06T03:38:58;4.55;;;3.00;;
19687;SDS011;9993;52.008;4.732;2022-08-06T03:41:26;3.90;;;3.10;;
19687;SDS011;9993;52.008;4.732;2022-08-06T03:43:53;5.47;;;2.75;;
19687;SDS011;9993;52.008;4.732;2022-08-06T03:46:20;3.13;;;2.63;;
19687;SDS011;9993;52.008;4.732;2022-08-06T03:48:46;2.88;;;2.67;;
19687;SDS011;9993;52.008;4.732;2022-08-06T03:51:12;6.40;;;3.20;;
19687;SDS011;9993;52.008;4.732;2022-08-06T03:53:39;3.30;;;3.00;;
19687;SDS011;9993;52.008;4.732;2022-08-06T03:56:05;5.57;;;2.97;;
19687;SDS011;9993;52.008;4.732;2022-08-06T03:58:31;3.00;;;2.70;;
19687;SDS011;9993;52.008;4.732;2022-08-06T04:01:04;4.05;;;3.38;;
19687;SDS011;9993;52.008;4.732;2022-08-06T04:03:31;3.05;;;2.85;;
19687;SDS011;9993;52.008;4.732;2022-08-06T04:05:57;3.88;;;2.70;;
19687;SDS011;9993;52.008;4.732;2022-08-06T04:08:23;3.20;;;2.90;;
19687;SDS011;9993;52.008;4.732;2022-08-06T04:10:49;3.83;;;2.83;;
19687;SDS011;9993;52.008;4.732;2022-08-06T04:13:15;9.07;;;2.90;;
19687;SDS011;9993;52.008;4.732;2022-08-06T04:15:41;3.92;;;2.38;;
19687;SDS011;9993;52.008;4.732;2022-08-06T04:18:08;4.05;;;2.58;;
19687;SDS011;9993;52.008;4.732;2022-08-06T04:20:34;2.63;;;2.35;;
19687;SDS011;9993;52.008;4.732;2022-08-06T04:22:59;5.05;;;2.38;;
19687;SDS011;9993;52.008;4.732;2022-08-06T04:25:25;4.03;;;2.58;;
19687;SDS011;9993;52.008;4.732;2022-08-06T04:27:52;2.17;;;2.03;;
19687;SDS011;9993;52.008;4.732;2022-08-06T04:30:17;3.05;;;2.30;;
19687;SDS011;9993;52.008;4.732;2022-08-06T04:32:42;3.90;;;2.42;;
19687;SDS011;9993;52.008;4.732;2022-08-06T04:35:08;4.47;;;2.92;;
19687;SDS011;9993;52.008;4.732;2022-08-06T04:37:35;2.95;;;2.75;;
19687;SDS011;9993;52.008;4.732;2022-08-06T04:40:01;6.72;;;2.60;;
19687;SDS011;9993;52.008;4.732;2022-08-06T04:42:26;4.35;;;2.50;;
19687;SDS011;9993;52.008;4.732;2022-08-06T04:44:52;3.85;;;3.05;;
19687;SDS011;9993;52.008;4.732;2022-08-06T04:47:17;4.10;;;2.40;;
19687;SDS011;9993;52.008;4.732;2022-08-06T04:49:43;4.00;;;3.47;;
19687;SDS011;9993;52.008;4.732;2022-08-06T04:52:08;5.68;;;2.85;;
19687;SDS011;9993;52.008;4.732;2022-08-06T04:54:33;6.03;;;2.40;;
19687;SDS011;9993;52.008;4.732;2022-08-06T04:56:58;6.55;;;2.53;;
19687;SDS011;9993;52.008;4.732;2022-08-06T04:59:24;3.03;;;2.08;;
19687;SDS011;9993;52.008;4.732;2022-08-06T05:01:49;3.60;;;2.20;;
19687;SDS011;9993;52.008;4.732;2022-08-06T05:04:14;3.55;;;1.92;;
19687;SDS011;9993;52.008;4.732;2022-08-06T05:09:09;2.33;;;1.73;;
19687;SDS011;9993;52.008;4.732;2022-08-06T05:11:37;2.00;;;1.90;;
19687;SDS011;9993;52.008;4.732;2022-08-06T05:14:08;2.55;;;2.33;;
19687;SDS011;9993;52.008;4.732;2022-08-06T05:16:35;2.25;;;1.80;;
19687;SDS011;9993;52.008;4.732;2022-08-06T05:19:02;1.98;;;1.88;;
19687;SDS011;9993;52.008;4.732;2022-08-06T05:21:30;3.25;;;2.13;;
19687;SDS011;9993;52.008;4.732;2022-08-06T05:23:56;2.45;;;2.13;;
19687;SDS011;9993;52.008;4.732;2022-08-06T05:26:22;3.20;;;2.78;;
19687;SDS011;9993;52.008;4.732;2022-08-06T05:28:47;2.85;;;2.53;;
19687;SDS011;9993;52.008;4.732;2022-08-06T05:31:13;3.08;;;2.50;;
19687;SDS011;9993;52.008;4.732;2022-08-06T05:33:38;3.20;;;2.47;;
19687;SDS011;9993;52.008;4.732;2022-08-06T05:36:05;5.07;;;2.10;;
19687;SDS011;9993;52.008;4.732;2022-08-06T05:38:32;3.00;;;2.25;;
19687;SDS011;9993;52.008;4.732;2022-08-06T05:40:57;2.63;;;2.42;;
19687;SDS011;9993;52.008;4.732;2022-08-06T05:43:23;4.13;;;2.67;;
19687;SDS011;9993;52.008;4.732;2022-08-06T05:45:54;4.43;;;3.22;;
19687;SDS011;9993;52.008;4.732;2022-08-06T05:48:24;2.78;;;2.58;;
19687;SDS011;9993;52.008;4.732;2022-08-06T05:50:50;3.33;;;2.53;;
19687;SDS011;9993;52.008;4.732;2022-08-06T05:53:19;2.58;;;2.38;;
19687;SDS011;9993;52.008;4.732;2022-08-06T05:55:56;4.20;;;2.55;;
19687;SDS011;9993;52.008;4.732;2022-08-06T05:58:55;2.60;;;2.40;;
19687;SDS011;9993;52.008;4.732;2022-08-06T06:01:15;4.03;;;2.80;;
19687;SDS011;9993;52.008;4.732;2022-08-06T06:03:40;3.20;;;2.53;;
19687;SDS011;9993;52.008;4.732;2022-08-06T06:06:06;4.97;;;2.65;;
19687;SDS011;9993;52.008;4.732;2022-08-06T06:08:32;2.35;;;2.15;;
19687;SDS011;9993;52.008;4.732;2022-08-06T06:10:58;3.85;;;2.58;;
19687;SDS011;9993;52.008;4.732;2022-08-06T06:13:24;3.58;;;1.88;;
19687;SDS011;9993;52.008;4.732;2022-08-06T06:21:32;4.47;;;1.83;;
19687;SDS011;9993;52.008;4.732;2022-08-06T06:29:17;2.37;;;1.40;;
19687;SDS011;9993;52.008;4.732;2022-08-06T06:31:51;3.08;;;1.55;;
19687;SDS011;9993;52.008;4.732;2022-08-06T06:34:23;3.17;;;1.40;;
19687;SDS011;9993;52.008;4.732;2022-08-06T06:39:21;1.30;;;1.20;;
19687;SDS011;9993;52.008;4.732;2022-08-06T06:41:49;3.38;;;1.40;;
19687;SDS011;9993;52.008;4.732;2022-08-06T06:44:23;3.05;;;1.42;;
19687;SDS011;9993;52.008;4.732;2022-08-06T06:47:03;1.50;;;1.40;;
19687;SDS011;9993;52.008;4.732;2022-08-06T06:49:37;2.58;;;1.45;;
19687;SDS011;9993;52.008;4.732;2022-08-06T06:52:12;1.52;;;1.20;;
19687;SDS011;9993;52.008;4.732;2022-08-06T06:54:41;1.00;;;1.00;;
19687;SDS011;9993;52.008;4.732;2022-08-06T06:57:07;2.05;;;1.52;;
19687;SDS011;9993;52.008;4.732;2022-08-06T06:59:34;1.50;;;1.40;;
19687;SDS011;9993;52.008;4.732;2022-08-06T07:02:01;1.90;;;1.30;;
19687;SDS011;9993;52.008;4.732;2022-08-06T07:04:27;2.75;;;1.30;;
19687;SDS011;9993;52.008;4.732;2022-08-06T07:06:53;4.25;;;1.65;;
19687;SDS011;9993;52.008;4.732;2022-08-06T07:09:20;1.38;;;1.27;;
19687;SDS011;9993;52.008;4.732;2022-08-06T07:11:46;1.40;;;1.10;;
19687;SDS011;9993;52.008;4.732;2022-08-06T07:14:13;1.42;;;1.33;;
19687;SDS011;9993;52.008;4.732;2022-08-06T07:16:39;1.20;;;1.10;;
19687;SDS011;9993;52.008;4.732;2022-08-06T07:19:05;3.65;;;1.35;;
19687;SDS011;9993;52.008;4.732;2022-08-06T07:21:31;1.50;;;1.40;;
19687;SDS011;9993;52.008;4.732;2022-08-06T07:23:56;4.30;;;1.40;;
19687;SDS011;9993;52.008;4.732;2022-08-06T07:26:22;2.45;;;1.20;;
19687;SDS011;9993;52.008;4.732;2022-08-06T07:28:49;2.55;;;1.20;;
19687;SDS011;9993;52.008;4.732;2022-08-06T07:31:15;1.38;;;1.27;;
19687;SDS011;9993;52.008;4.732;2022-08-06T07:33:41;1.73;;;1.20;;
19687;SDS011;9993;52.008;4.732;2022-08-06T07:36:06;1.38;;;1.10;;
19687;SDS011;9993;52.008;4.732;2022-08-06T07:38:32;3.45;;;1.33;;
19687;SDS011;9993;52.008;4.732;2022-08-06T07:40:59;2.33;;;1.50;;
19687;SDS011;9993;52.008;4.732;2022-08-06T07:43:27;1.92;;;1.30;;
19687;SDS011;9993;52.008;4.732;2022-08-06T07:45:54;2.22;;;1.60;;
19687;SDS011;9993;52.008;4.732;2022-08-06T07:48:22;2.50;;;1.38;;
19687;SDS011;9993;52.008;4.732;2022-08-06T07:50:48;1.70;;;1.25;;
19687;SDS011;9993;52.008;4.732;2022-08-06T07:53:14;1.55;;;1.20;;
19687;SDS011;9993;52.008;4.732;2022-08-06T07:55:40;1.20;;;1.10;;
19687;SDS011;9993;52.008;4.732;2022-08-06T07:58:07;1.60;;;1.10;;
19687;SDS011;9993;52.008;4.732;2022-08-06T08:00:33;1.92;;;1.40;;
19687;SDS011;9993;52.008;4.732;2022-08-06T08:02:59;3.53;;;1.65;;
19687;SDS011;9993;52.008;4.732;2022-08-06T08:05:43;2.55;;;1.50;;
19687;SDS011;9993;52.008;4.732;2022-08-06T08:08:28;2.80;;;1.55;;
19687;SDS011;9993;52.008;4.732;2022-08-06T08:10:54;3.33;;;1.50;;
19687;SDS011;9993;52.008;4.732;2022-08-06T08:13:23;2.75;;;1.50;;
19687;SDS011;9993;52.008;4.732;2022-08-06T08:15:49;1.67;;;1.40;;
19687;SDS011;9993;52.008;4.732;2022-08-06T08:18:14;1.77;;;1.42;;
19687;SDS011;9993;52.008;4.732;2022-08-06T08:20:41;1.55;;;1.45;;
19687;SDS011;9993;52.008;4.732;2022-08-06T08:23:07;1.92;;;1.23;;
19687;SDS011;9993;52.008;4.732;2022-08-06T08:25:33;3.05;;;1.55;;
19687;SDS011;9993;52.008;4.732;2022-08-06T08:27:59;1.83;;;1.27;;
19687;SDS011;9993;52.008;4.732;2022-08-06T08:30:24;1.70;;;1.30;;
19687;SDS011;9993;52.008;4.732;2022-08-06T08:32:49;1.92;;;1.30;;
19687;SDS011;9993;52.008;4.732;2022-08-06T08:35:15;2.40;;;1.45;;
19687;SDS011;9993;52.008;4.732;2022-08-06T08:37:40;2.35;;;1.15;;
19687;SDS011;9993;52.008;4.732;2022-08-06T08:40:06;2.28;;;1.40;;
19687;SDS011;9993;52.008;4.732;2022-08-06T08:42:44;2.30;;;1.13;;
19687;SDS011;9993;52.008;4.732;2022-08-06T08:45:10;4.30;;;1.52;;
19687;SDS011;9993;52.008;4.732;2022-08-06T08:47:38;2.55;;;1.20;;
19687;SDS011;9993;52.008;4.732;2022-08-06T08:50:04;1.33;;;1.20;;
19687;SDS011;9993;52.008;4.732;2022-08-06T08:52:33;1.30;;;1.10;;
19687;SDS011;9993;52.008;4.732;2022-08-06T08:55:03;1.80;;;1.30;;
19687;SDS011;9993;52.008;4.732;2022-08-06T08:57:28;2.80;;;1.33;;
19687;SDS011;9993;52.008;4.732;2022-08-06T08:59:55;1.48;;;1.20;;
19687;SDS011;9993;52.008;4.732;2022-08-06T09:02:20;2.15;;;1.27;;
19687;SDS011;9993;52.008;4.732;2022-08-06T09:04:45;2.05;;;1.23;;
19687;SDS011;9993;52.008;4.732;2022-08-06T09:07:11;1.42;;;1.00;;
19687;SDS011;9993;52.008;4.732;2022-08-06T09:09:36;1.33;;;1.20;;
19687;SDS011;9993;52.008;4.732;2022-08-06T09:12:02;5.43;;;1.42;;
19687;SDS011;9993;52.008;4.732;2022-08-06T09:14:28;3.10;;;1.23;;
19687;SDS011;9993;52.008;4.732;2022-08-06T09:16:53;2.13;;;1.10;;
19687;SDS011;9993;52.008;4.732;2022-08-06T09:19:18;1.60;;;1.17;;
19687;SDS011;9993;52.008;4.732;2022-08-06T09:21:44;3.30;;;1.10;;
19687;SDS011;9993;52.008;4.732;2022-08-06T09:24:09;1.30;;;1.00;;
19687;SDS011;9993;52.008;4.732;2022-08-06T09:26:34;1.73;;;1.20;;
19687;SDS011;9993;52.008;4.732;2022-08-06T09:29:00;1.85;;;1.50;;
19687;SDS011;9993;52.008;4.732;2022-08-06T09:31:25;3.35;;;1.50;;
19687;SDS011;9993;52.008;4.732;2022-08-06T09:33:59;1.48;;;1.23;;
19687;SDS011;9993;52.008;4.732;2022-08-06T09:36:24;1.23;;;1.17;;
19687;SDS011;9993;52.008;4.732;2022-08-06T09:41:15;2.08;;;1.27;;
19687;SDS011;9993;52.008;4.732;2022-08-06T09:43:41;1.77;;;0.98;;
19687;SDS011;9993;52.008;4.732;2022-08-06T09:46:07;4.63;;;1.85;;
19687;SDS011;9993;52.008;4.732;2022-08-06T09:48:32;1.30;;;1.10;;
19687;SDS011;9993;52.008;4.732;2022-08-06T09:50:58;1.67;;;1.20;;
19687;SDS011;9993;52.008;4.732;2022-08-06T09:53:23;1.95;;;1.08;;
19687;SDS011;9993;52.008;4.732;2022-08-06T09:55:49;1.13;;;0.90;;
19687;SDS011;9993;52.008;4.732;2022-08-06T09:58:25;2.05;;;1.20;;
19687;SDS011;9993;52.008;4.732;2022-08-06T10:00:50;1.10;;;1.10;;
19687;SDS011;9993;52.008;4.732;2022-08-06T10:03:16;2.25;;;1.10;;
19687;SDS011;9993;52.008;4.732;2022-08-06T10:05:41;1.60;;;1.00;;
19687;SDS011;9993;52.008;4.732;2022-08-06T10:08:09;1.30;;;0.90;;
19687;SDS011;9993;52.008;4.732;2022-08-06T10:10:47;1.70;;;1.13;;
19687;SDS011;9993;52.008;4.732;2022-08-06T10:15:38;1.10;;;1.00;;
19687;SDS011;9993;52.008;4.732;2022-08-06T10:18:03;1.07;;;0.90;;
19687;SDS011;9993;52.008;4.732;2022-08-06T10:20:29;1.10;;;0.90;;
19687;SDS011;9993;52.008;4.732;2022-08-06T10:22:54;1.20;;;0.90;;
19687;SDS011;9993;52.008;4.732;2022-08-06T10:25:22;2.00;;;1.10;;
19687;SDS011;9993;52.008;4.732;2022-08-06T10:27:47;1.65;;;1.10;;
19687;SDS011;9993;52.008;4.732;2022-08-06T10:30:13;1.23;;;1.00;;
19687;SDS011;9993;52.008;4.732;2022-08-06T10:35:04;1.00;;;1.00;;
19687;SDS011;9993;52.008;4.732;2022-08-06T10:37:31;0.90;;;0.90;;
19687;SDS011;9993;52.008;4.732;2022-08-06T10:39:58;1.27;;;1.17;;
19687;SDS011;9993;52.008;4.732;2022-08-06T10:42:23;0.95;;;0.90;;
19687;SDS011;9993;52.008;4.732;2022-08-06T10:44:50;1.00;;;1.00;;
19687;SDS011;9993;52.008;4.732;2022-08-06T10:47:15;1.38;;;0.90;;
19687;SDS011;9993;52.008;4.732;2022-08-06T10:49:41;2.60;;;0.80;;
19687;SDS011;9993;52.008;4.732;2022-08-06T10:52:06;2.60;;;0.90;;
19687;SDS011;9993;52.008;4.732;2022-08-06T10:54:32;1.30;;;1.20;;
19687;SDS011;9993;52.008;4.732;2022-08-06T10:56:57;1.25;;;1.10;;
19687;SDS011;9993;52.008;4.732;2022-08-06T10:59:23;2.25;;;1.10;;
19687;SDS011;9993;52.008;4.732;2022-08-06T11:02:11;0.80;;;0.80;;
19687;SDS011;9993;52.008;4.732;2022-08-06T11:07:27;1.42;;;1.00;;
19687;SDS011;9993;52.008;4.732;2022-08-06T11:14:49;0.90;;;0.90;;
19687;SDS011;9993;52.008;4.732;2022-08-06T11:17:14;1.30;;;1.10;;
19687;SDS011;9993;52.008;4.732;2022-08-06T11:19:42;1.42;;;0.90;;
19687;SDS011;9993;52.008;4.732;2022-08-06T11:22:07;2.55;;;1.10;;
19687;SDS011;9993;52.008;4.732;2022-08-06T11:24:33;1.10;;;1.10;;
19687;SDS011;9993;52.008;4.732;2022-08-06T11:26:58;1.60;;;1.20;;
19687;SDS011;9993;52.008;4.732;2022-08-06T11:29:23;1.80;;;1.10;;
19687;SDS011;9993;52.008;4.732;2022-08-06T11:31:49;1.20;;;1.10;;
19687;SDS011;9993;52.008;4.732;2022-08-06T11:34:16;1.50;;;1.40;;
19687;SDS011;9993;52.008;4.732;2022-08-06T11:36:45;1.77;;;1.55;;
19687;SDS011;9993;52.008;4.732;2022-08-06T11:39:11;2.20;;;2.00;;
19687;SDS011;9993;52.008;4.732;2022-08-06T11:41:43;1.63;;;1.52;;
19687;SDS011;9993;52.008;4.732;2022-08-06T11:44:09;3.70;;;1.73;;
19687;SDS011;9993;52.008;4.732;2022-08-06T11:46:38;2.00;;;1.27;;
19687;SDS011;9993;52.008;4.732;2022-08-06T11:49:20;1.70;;;1.50;;
19687;SDS011;9993;52.008;4.732;2022-08-06T11:57:03;1.95;;;1.40;;
19687;SDS011;9993;52.008;4.732;2022-08-06T11:59:21;1.48;;;1.38;;
19687;SDS011;9993;52.008;4.732;2022-08-06T12:01:47;1.20;;;1.20;;
19687;SDS011;9993;52.008;4.732;2022-08-06T12:04:55;1.40;;;1.30;;
19687;SDS011;9993;52.008;4.732;2022-08-06T12:07:24;1.65;;;1.55;;
19687;SDS011;9993;52.008;4.732;2022-08-06T12:15:35;4.30;;;1.30;;
19687;SDS011;9993;52.008;4.732;2022-08-06T12:23:00;1.50;;;1.40;;
19687;SDS011;9993;52.008;4.732;2022-08-06T12:25:29;1.48;;;1.38;;
19687;SDS011;9993;52.008;4.732;2022-08-06T12:27:55;1.75;;;1.40;;
19687;SDS011;9993;52.008;4.732;2022-08-06T12:30:21;1.38;;;1.23;;
19687;SDS011;9993;52.008;4.732;2022-08-06T12:32:46;2.78;;;1.23;;
19687;SDS011;9993;52.008;4.732;2022-08-06T12:35:11;2.20;;;1.42;;
19687;SDS011;9993;52.008;4.732;2022-08-06T12:37:43;1.35;;;1.27;;
19687;SDS011;9993;52.008;4.732;2022-08-06T12:40:09;1.67;;;1.42;;
19687;SDS011;9993;52.008;4.732;2022-08-06T12:43:14;2.10;;;1.52;;
19687;SDS011;9993;52.008;4.732;2022-08-06T12:45:40;1.55;;;1.40;;
19687;SDS011;9993;52.008;4.732;2022-08-06T12:48:10;3.05;;;1.33;;
19687;SDS011;9993;52.008;4.732;2022-08-06T12:50:42;3.50;;;1.60;;
19687;SDS011;9993;52.008;4.732;2022-08-06T12:53:08;1.75;;;1.30;;
19687;SDS011;9993;52.008;4.732;2022-08-06T12:58:12;1.83;;;1.70;;
19687;SDS011;9993;52.008;4.732;2022-08-06T13:00:39;1.80;;;1.70;;
19687;SDS011;9993;52.008;4.732;2022-08-06T13:03:05;2.20;;;1.85;;
19687;SDS011;9993;52.008;4.732;2022-08-06T13:05:31;2.00;;;1.60;;
19687;SDS011;9993;52.008;4.732;2022-08-06T13:07:57;1.70;;;1.60;;
19687;SDS011;9993;52.008;4.732;2022-08-06T13:10:23;2.15;;;1.70;;
19687;SDS011;9993;52.008;4.732;2022-08-06T13:12:58;1.67;;;1.58;;
19687;SDS011;9993;52.008;4.732;2022-08-06T13:15:25;1.80;;;1.70;;
19687;SDS011;9993;52.008;4.732;2022-08-06T13:18:06;2.55;;;1.65;;
19687;SDS011;9993;52.008;4.732;2022-08-06T13:20:38;1.50;;;1.40;;
19687;SDS011;9993;52.008;4.732;2022-08-06T13:23:03;1.80;;;1.70;;
19687;SDS011;9993;52.008;4.732;2022-08-06T13:25:29;2.10;;;1.52;;
19687;SDS011;9993;52.008;4.732;2022-08-06T13:28:07;1.50;;;1.40;;
19687;SDS011;9993;52.008;4.732;2022-08-06T13:30:33;3.20;;;1.40;;
19687;SDS011;9993;52.008;4.732;2022-08-06T13:33:10;1.50;;;1.40;;
19687;SDS011;9993;52.008;4.732;2022-08-06T13:35:35;2.35;;;1.50;;
19687;SDS011;9993;52.008;4.732;2022-08-06T13:38:00;2.17;;;1.60;;
19687;SDS011;9993;52.008;4.732;2022-08-06T13:40:42;1.98;;;1.50;;
19687;SDS011;9993;52.008;4.732;2022-08-06T13:43:11;1.80;;;1.70;;
19687;SDS011;9993;52.008;4.732;2022-08-06T13:45:37;2.30;;;1.60;;
19687;SDS011;9993;52.008;4.732;2022-08-06T13:48:06;1.40;;;1.30;;
19687;SDS011;9993;52.008;4.732;2022-08-06T13:50:32;2.15;;;1.70;;
19687;SDS011;9993;52.008;4.732;2022-08-06T13:52:58;2.03;;;1.52;;
19687;SDS011;9993;52.008;4.732;2022-08-06T13:55:23;3.00;;;1.73;;
19687;SDS011;9993;52.008;4.732;2022-08-06T13:57:49;1.83;;;1.73;;
19687;SDS011;9993;52.008;4.732;2022-08-06T14:00:14;2.10;;;1.92;;
19687;SDS011;9993;52.008;4.732;2022-08-06T14:02:39;1.95;;;1.85;;
19687;SDS011;9993;52.008;4.732;2022-08-06T14:05:05;2.25;;;1.70;;
19687;SDS011;9993;52.008;4.732;2022-08-06T14:07:30;1.90;;;1.80;;
19687;SDS011;9993;52.008;4.732;2022-08-06T14:09:55;1.90;;;1.80;;
19687;SDS011;9993;52.008;4.732;2022-08-06T14:12:21;1.80;;;1.70;;
19687;SDS011;9993;52.008;4.732;2022-08-06T14:14:46;1.90;;;1.77;;
19687;SDS011;9993;52.008;4.732;2022-08-06T14:17:11;2.83;;;2.05;;
19687;SDS011;9993;52.008;4.732;2022-08-06T14:19:36;2.20;;;2.00;;
19687;SDS011;9993;52.008;4.732;2022-08-06T14:22:01;1.70;;;1.60;;
19687;SDS011;9993;52.008;4.732;2022-08-06T14:24:27;1.88;;;1.70;;
19687;SDS011;9993;52.008;4.732;2022-08-06T14:26:52;1.95;;;1.70;;
19687;SDS011;9993;52.008;4.732;2022-08-06T14:29:17;1.85;;;1.70;;
19687;SDS011;9993;52.008;4.732;2022-08-06T14:31:42;1.90;;;1.80;;
19687;SDS011;9993;52.008;4.732;2022-08-06T14:34:08;2.35;;;1.67;;
19687;SDS011;9993;52.008;4.732;2022-08-06T14:36:33;2.25;;;1.48;;
19687;SDS011;9993;52.008;4.732;2022-08-06T14:38:58;1.85;;;1.65;;
19687;SDS011;9993;52.008;4.732;2022-08-06T14:41:24;2.08;;;1.70;;
19687;SDS011;9993;52.008;4.732;2022-08-06T14:44:08;1.92;;;1.70;;
19687;SDS011;9993;52.008;4.732;2022-08-06T14:46:52;1.65;;;1.55;;
19687;SDS011;9993;52.008;4.732;2022-08-06T14:49:17;1.70;;;1.60;;
19687;SDS011;9993;52.008;4.732;2022-08-06T14:51:42;2.27;;;1.70;;
19687;SDS011;9993;52.008;4.732;2022-08-06T14:54:08;2.30;;;1.80;;
19687;SDS011;9993;52.008;4.732;2022-08-06T14:56:33;2.15;;;1.83;;
19687;SDS011;9993;52.008;4.732;2022-08-06T14:58:59;2.17;;;1.80;;
19687;SDS011;9993;52.008;4.732;2022-08-06T15:01:24;1.50;;;1.40;;
19687;SDS011;9993;52.008;4.732;2022-08-06T15:03:49;1.50;;;1.40;;
19687;SDS011;9993;52.008;4.732;2022-08-06T15:06:14;1.45;;;1.35;;
19687;SDS011;9993;52.008;4.732;2022-08-06T15:08:39;1.60;;;1.50;;
19687;SDS011;9993;52.008;4.732;2022-08-06T15:11:07;1.70;;;1.50;;
19687;SDS011;9993;52.008;4.732;2022-08-06T15:13:32;2.80;;;1.50;;
19687;SDS011;9993;52.008;4.732;2022-08-06T15:15:57;2.92;;;1.77;;
19687;SDS011;9993;52.008;4.732;2022-08-06T15:18:23;2.28;;;1.52;;
19687;SDS011;9993;52.008;4.732;2022-08-06T15:20:48;1.70;;;1.60;;
19687;SDS011;9993;52.008;4.732;2022-08-06T15:23:13;2.10;;;1.85;;
19687;SDS011;9993;52.008;4.732;2022-08-06T15:25:38;1.60;;;1.50;;
19687;SDS011;9993;52.008;4.732;2022-08-06T15:28:04;3.22;;;1.35;;
19687;SDS011;9993;52.008;4.732;2022-08-06T15:30:29;1.83;;;1.73;;
19687;SDS011;9993;52.008;4.732;2022-08-06T15:32:54;1.50;;;1.40;;
19687;SDS011;9993;52.008;4.732;2022-08-06T15:35:20;1.58;;;1.48;;
19687;SDS011;9993;52.008;4.732;2022-08-06T15:37:45;1.73;;;1.48;;
19687;SDS011;9993;52.008;4.732;2022-08-06T15:40:10;1.70;;;1.58;;
19687;SDS011;9993;52.008;4.732;2022-08-06T15:42:36;1.35;;;1.25;;
19687;SDS011;9993;52.008;4.732;2022-08-06T15:45:01;2.17;;;1.50;;
19687;SDS011;9993;52.008;4.732;2022-08-06T15:47:26;2.05;;;1.73;;
19687;SDS011;9993;52.008;4.732;2022-08-06T15:49:51;1.77;;;1.60;;
19687;SDS011;9993;52.008;4.732;2022-08-06T15:54:46;2.05;;;1.95;;
19687;SDS011;9993;52.008;4.732;2022-08-06T15:57:11;2.03;;;1.73;;
19687;SDS011;9993;52.008;4.732;2022-08-06T15:59:37;1.90;;;1.80;;
19687;SDS011;9993;52.008;4.732;2022-08-06T16:02:02;2.15;;;2.00;;
19687;SDS011;9993;52.008;4.732;2022-08-06T16:04:29;2.20;;;2.03;;
19687;SDS011;9993;52.008;4.732;2022-08-06T16:06:54;1.90;;;1.80;;
19687;SDS011;9993;52.008;4.732;2022-08-06T16:09:20;2.38;;;2.10;;
19687;SDS011;9993;52.008;4.732;2022-08-06T16:11:45;1.60;;;1.50;;